Time;durP1;ratioP1;P1;durP2;ratioP2;P2;SDS_P1;SDS_P2;PMS_P1;PMS_P2;Temp;Humidity;BMP_temperature;BMP_pressure;BME280_temperature;BME280_humidity;BME280_pressure;Samples;Min_cycle;Max_cycle;Signal;HPM_P1;HPM_P2
2021/11/19 00:01:19;;;;;;;22.63;12.63;;;;;;;4.82;97.35;101560.63;5011481;28;20113;-68
2021/11/19 00:03:45;;;;;;;22.77;13.95;;;;;;;4.81;97.27;101556.28;5012694;28;20042;-69
2021/11/19 00:06:12;;;;;;;19.55;12.20;;;;;;;4.81;97.33;101550.94;5012769;28;20088;-69
2021/11/19 00:08:38;;;;;;;19.50;12.95;;;;;;;4.83;97.24;101561.50;5012532;28;20106;-69
2021/11/19 00:11:21;;;;;;;25.42;12.57;;;;;;;4.85;97.26;101549.88;5012208;28;20030;-69
2021/11/19 00:13:47;;;;;;;20.40;12.02;;;;;;;4.88;96.84;101567.47;5012502;28;20044;-69
2021/11/19 00:16:14;;;;;;;20.30;11.43;;;;;;;4.85;96.70;101567.59;5011176;28;20104;-69
2021/11/19 00:18:41;;;;;;;19.70;12.32;;;;;;;4.89;96.04;101559.44;5012158;28;20029;-69
2021/11/19 00:21:06;;;;;;;22.70;12.10;;;;;;;4.85;96.22;101555.19;5011953;28;20100;-69
2021/11/19 00:23:32;;;;;;;20.58;12.23;;;;;;;4.94;95.71;101567.22;5012038;28;20061;-69
2021/11/19 00:25:58;;;;;;;19.25;11.85;;;;;;;4.93;95.71;101565.50;5011679;28;20026;-69
2021/11/19 00:28:24;;;;;;;22.83;11.82;;;;;;;4.90;96.10;101565.63;5011846;28;20028;-69
2021/11/19 00:30:50;;;;;;;21.17;11.90;;;;;;;4.95;95.94;101574.22;5012092;28;20022;-69
2021/11/19 00:33:16;;;;;;;21.20;12.10;;;;;;;4.87;96.38;101574.56;5012003;28;20731;-69
2021/11/19 00:35:45;;;;;;;21.33;11.88;;;;;;;4.84;96.48;101582.72;5012111;28;20141;-69
2021/11/19 00:38:12;;;;;;;20.23;12.00;;;;;;;4.85;96.44;101588.88;5011865;28;20048;-69
2021/11/19 00:40:42;;;;;;;21.15;12.40;;;;;;;4.84;96.09;101581.84;5011871;28;20022;-69
2021/11/19 00:43:09;;;;;;;19.35;11.13;;;;;;;4.77;96.39;101573.25;5011808;28;20034;-69
2021/11/19 00:45:36;;;;;;;21.30;12.82;;;;;;;4.80;95.92;101569.63;5010571;28;20363;-69
2021/11/19 00:48:04;;;;;;;22.65;12.93;;;;;;;4.79;96.49;101563.44;5010673;28;20519;-69
2021/11/19 00:50:38;;;;;;;22.33;13.00;;;;;;;4.72;96.61;101561.97;5011861;28;20052;-69
2021/11/19 00:53:04;;;;;;;20.48;12.68;;;;;;;4.70;97.09;101561.19;5011558;28;20033;-69
2021/11/19 00:55:30;;;;;;;22.77;14.07;;;;;;;4.68;96.75;101565.72;5011832;28;20038;-69
2021/11/19 00:57:55;;;;;;;20.35;12.35;;;;;;;4.66;96.48;101560.47;5011527;28;20741;-69
2021/11/19 01:00:28;;;;;;;20.77;13.38;;;;;;;4.66;96.95;101572.88;5011222;28;20110;-69
2021/11/19 01:02:54;;;;;;;23.60;13.85;;;;;;;4.65;96.64;101561.38;5011814;28;20057;-69
2021/11/19 01:05:20;;;;;;;23.77;15.18;;;;;;;4.62;97.05;101561.50;5011333;28;20037;-69
2021/11/19 01:07:46;;;;;;;23.60;13.43;;;;;;;4.51;97.22;101553.16;5011514;28;20037;-69
2021/11/19 01:10:20;;;;;;;27.23;13.70;;;;;;;4.60;96.71;101560.72;5010884;28;20117;-69
2021/11/19 01:12:45;;;;;;;;;;;;;;;4.60;96.60;101568.69;5011963;28;20041;-69
2021/11/19 01:15:16;;;;;;;23.67;13.40;;;;;;;4.57;97.09;101566.16;5010950;28;19921;-69
2021/11/19 01:17:46;;;;;;;20.65;13.85;;;;;;;4.50;97.20;101562.06;5011054;28;20081;-69
2021/11/19 01:20:33;;;;;;;23.05;14.25;;;;;;;4.45;97.67;101542.78;5011054;28;20034;-69
2021/11/19 01:23:01;;;;;;;24.42;14.52;;;;;;;4.48;98.03;101553.28;5011265;28;20029;-69
2021/11/19 01:25:30;;;;;;;23.15;13.00;;;;;;;4.47;98.33;101563.97;5010833;28;20119;-69
2021/11/19 01:27:56;;;;;;;23.23;14.48;;;;;;;4.52;98.31;101562.00;5010643;28;20037;-69
2021/11/19 01:30:26;;;;;;;24.75;14.95;;;;;;;4.48;98.46;101557.72;5010517;28;20036;-69
2021/11/19 01:32:52;;;;;;;24.17;14.15;;;;;;;4.45;98.25;101539.28;5010357;28;20058;-69
2021/11/19 01:35:17;;;;;;;23.73;14.05;;;;;;;4.49;98.47;101544.38;5010447;28;20084;-69
2021/11/19 01:37:43;;;;;;;26.75;14.65;;;;;;;4.47;98.82;101538.28;5010896;28;20038;-69
2021/11/19 01:40:12;;;;;;;26.42;14.95;;;;;;;4.46;98.76;101538.34;5010356;28;20034;-69
2021/11/19 01:42:43;;;;;;;25.50;13.60;;;;;;;4.48;99.21;101533.81;5009200;28;20088;-69
2021/11/19 01:45:16;;;;;;;25.00;14.55;;;;;;;4.48;99.39;101542.66;5010389;28;20081;-69
2021/11/19 01:47:46;;;;;;;23.20;14.55;;;;;;;4.54;99.50;101546.84;5010823;28;20053;-69
2021/11/19 01:50:27;;;;;;;24.33;14.95;;;;;;;4.48;99.63;101528.50;5010082;28;20100;-69
2021/11/19 01:53:00;;;;;;;27.65;14.57;;;;;;;4.55;99.14;101530.00;5008615;28;20045;-69
2021/11/19 01:55:31;;;;;;;24.45;14.18;;;;;;;4.61;98.27;101532.34;5010140;28;20033;-69
2021/11/19 01:58:19;;;;;;;27.60;15.10;;;;;;;4.65;98.24;101540.13;5010209;28;20383;-69
2021/11/19 02:00:50;;;;;;;24.60;14.57;;;;;;;4.62;97.88;101526.13;5010150;28;20083;-69
2021/11/19 02:03:19;;;;;;;25.90;14.93;;;;;;;4.60;98.16;101523.53;5010134;28;20045;-69
2021/11/19 02:06:00;;;;;;;24.90;14.63;;;;;;;4.59;98.32;101524.44;5008014;28;20564;-69
2021/11/19 02:08:30;;;;;;;22.90;14.77;;;;;;;4.56;98.59;101523.72;5009970;28;20026;-69
2021/11/19 02:11:07;;;;;;;25.10;14.50;;;;;;;4.61;98.30;101522.59;5009956;28;20426;-69
2021/11/19 02:13:50;;;;;;;23.08;13.65;;;;;;;4.61;98.31;101533.22;5009931;28;20037;-69
2021/11/19 02:16:23;;;;;;;24.10;13.27;;;;;;;4.55;98.52;101530.00;5008547;28;20036;-69
2021/11/19 02:19:10;;;;;;;26.00;14.23;;;;;;;4.54;98.39;101531.78;5010144;28;20041;-69
2021/11/19 02:21:48;;;;;;;24.75;14.38;;;;;;;4.56;98.74;101534.38;5008505;28;20033;-69
2021/11/19 02:24:28;;;;;;;24.92;14.25;;;;;;;4.55;98.64;101527.34;5009711;28;20482;-69
2021/11/19 02:27:10;;;;;;;28.50;15.73;;;;;;;4.55;98.74;101522.00;5009827;28;20033;-69
2021/11/19 02:29:42;;;;;;;24.23;14.15;;;;;;;4.51;98.50;101517.75;5009258;28;20030;-69
2021/11/19 02:32:15;;;;;;;24.63;14.73;;;;;;;4.54;98.63;101522.94;5009467;28;20034;-68
2021/11/19 02:34:41;;;;;;;25.23;14.90;;;;;;;4.55;98.53;101517.53;5009664;28;20549;-69
2021/11/19 02:37:29;;;;;;;28.20;15.23;;;;;;;4.50;98.59;101497.44;5009368;28;20033;-69
2021/11/19 02:40:00;;;;;;;22.23;13.80;;;;;;;4.52;98.57;101500.91;5009605;28;20047;-69
2021/11/19 02:42:32;;;;;;;26.20;15.02;;;;;;;4.50;98.63;101502.75;5009446;28;20084;-69
2021/11/19 02:45:01;;;;;;;21.88;14.02;;;;;;;4.49;99.07;101514.31;5009502;28;20061;-69
2021/11/19 02:47:29;;;;;;;27.48;16.05;;;;;;;4.51;99.29;101507.13;5009774;28;20032;-69
2021/11/19 02:49:57;;;;;;;28.33;15.15;;;;;;;4.48;99.43;101521.41;5009852;28;20037;-69
2021/11/19 02:52:29;;;;;;;25.98;14.63;;;;;;;4.52;99.29;101528.31;5009453;28;20033;-69
2021/11/19 02:54:57;;;;;;;26.77;14.95;;;;;;;4.51;99.56;101512.44;5009631;28;20029;-69
2021/11/19 02:57:23;;;;;;;27.63;15.57;;;;;;;4.50;99.52;101510.72;5006850;28;20216;-69
2021/11/19 02:59:48;;;;;;;28.05;16.02;;;;;;;4.54;99.66;101502.53;5009807;28;20028;-69
2021/11/19 03:02:20;;;;;;;32.55;16.05;;;;;;;4.58;99.84;101492.66;5009374;28;20049;-69
2021/11/19 03:04:52;;;;;;;23.77;14.68;;;;;;;4.56;99.76;101487.41;5009442;28;20406;-69
2021/11/19 03:07:18;;;;;;;27.42;15.07;;;;;;;4.61;99.97;101489.84;5009436;28;20123;-69
2021/11/19 03:09:49;;;;;;;24.33;14.98;;;;;;;4.64;99.88;101482.59;5009722;28;20466;-69
2021/11/19 03:12:19;;;;;;;22.55;14.75;;;;;;;4.65;99.66;101481.66;5013224;28;20056;-69
2021/11/19 03:14:47;;;;;;;23.60;14.40;;;;;;;4.64;99.10;101471.97;5011447;28;20113;-68
2021/11/19 03:17:14;;;;;;;27.20;15.65;;;;;;;4.71;99.06;101485.88;5013143;28;20109;-68
2021/11/19 03:19:40;;;;;;;25.35;16.20;;;;;;;4.69;99.35;101485.06;5013202;28;20025;-69
2021/11/19 03:22:07;;;;;;;26.38;15.20;;;;;;;4.73;99.23;101483.97;5012813;28;20371;-69
2021/11/19 03:24:33;;;;;;;24.48;16.35;;;;;;;4.75;99.16;101476.81;5013305;28;20052;-69
2021/11/19 03:26:58;;;;;;;26.05;16.17;;;;;;;4.73;99.27;101481.31;5013138;28;20062;-69
2021/11/19 03:29:25;;;;;;;25.55;15.32;;;;;;;4.75;99.24;101472.34;5012996;28;20033;-69
2021/11/19 03:31:51;;;;;;;27.90;14.95;;;;;;;4.84;99.49;101484.38;5013296;28;20045;-69
2021/11/19 03:34:18;;;;;;;29.85;15.27;;;;;;;4.78;98.96;101467.84;5012915;28;20049;-69
2021/11/19 03:36:47;;;;;;;25.42;16.02;;;;;;;4.83;99.04;101473.81;5012759;28;20375;-69
2021/11/19 03:39:14;;;;;;;25.55;15.10;;;;;;;4.86;99.01;101473.66;5012737;28;20065;-68
2021/11/19 03:41:42;;;;;;;25.83;14.73;;;;;;;4.90;98.93;101476.09;5012650;28;20456;-69
2021/11/19 03:44:13;;;;;;;24.48;15.30;;;;;;;4.87;98.83;101459.44;5012804;28;21768;-69
2021/11/19 03:46:46;;;;;;;23.25;14.00;;;;;;;4.96;98.47;101459.03;5012641;28;20025;-69
2021/11/19 03:49:12;;;;;;;24.80;14.77;;;;;;;4.99;98.24;101465.03;5012437;28;20022;-69
2021/11/19 03:51:55;;;;;;;25.60;15.27;;;;;;;5.04;97.82;101471.00;5012591;28;20740;-69
2021/11/19 03:54:22;;;;;;;26.63;16.42;;;;;;;5.01;97.92;101479.13;5012502;28;20169;-69
2021/11/19 03:56:49;;;;;;;22.35;14.65;;;;;;;5.05;98.21;101494.00;5012595;28;20034;-69
2021/11/19 03:59:15;;;;;;;25.27;15.00;;;;;;;5.07;98.04;101500.13;4993972;28;20049;-69
2021/11/19 04:01:43;;;;;;;25.05;15.30;;;;;;;5.02;97.92;101490.59;5012453;28;20033;-69
2021/11/19 04:04:11;;;;;;;24.73;14.50;;;;;;;5.05;97.55;101495.78;5012537;28;20092;-69
2021/11/19 04:06:38;;;;;;;23.30;15.05;;;;;;;5.08;97.35;101480.56;5012442;28;20136;-69
2021/11/19 04:09:05;;;;;;;26.50;16.10;;;;;;;5.13;97.90;101472.38;5012233;28;20057;-69
2021/11/19 04:11:30;;;;;;;23.10;14.55;;;;;;;5.11;97.80;101467.13;5012317;28;20041;-69
2021/11/19 04:13:56;;;;;;;26.45;14.73;;;;;;;5.11;98.00;101459.16;5012598;28;20030;-69
2021/11/19 04:16:29;;;;;;;23.00;14.80;;;;;;;5.18;97.93;101455.25;4994161;28;20030;-69
2021/11/19 04:18:55;;;;;;;24.90;14.37;;;;;;;5.16;97.71;101451.81;4994728;28;20032;-69
2021/11/19 04:21:21;;;;;;;22.83;14.02;;;;;;;5.23;97.46;101463.03;5010981;28;20631;-69
2021/11/19 04:23:49;;;;;;;26.40;15.88;;;;;;;5.22;97.61;101448.84;5012052;28;20519;-69
2021/11/19 04:26:16;;;;;;;26.08;15.65;;;;;;;5.27;97.14;101438.00;5010370;28;20240;-69
2021/11/19 04:28:43;;;;;;;23.25;14.85;;;;;;;5.29;97.23;101429.00;5012051;28;20033;-69
2021/11/19 04:31:09;;;;;;;26.70;15.55;;;;;;;5.27;97.35;101427.38;5011683;28;20044;-69
2021/11/19 04:33:36;;;;;;;23.67;15.40;;;;;;;5.32;96.67;101434.19;5011610;28;21306;-69
2021/11/19 04:36:03;;;;;;;23.95;13.85;;;;;;;5.35;96.57;101438.50;5011853;28;20038;-69
2021/11/19 04:38:29;;;;;;;23.60;15.35;;;;;;;5.38;96.24;101446.34;5011826;28;20111;-69
2021/11/19 04:40:56;;;;;;;25.15;14.55;;;;;;;5.34;96.30;101445.63;5011798;28;20057;-69
2021/11/19 04:43:24;;;;;;;23.02;14.88;;;;;;;5.37;95.97;101452.56;5014067;28;20034;-69
2021/11/19 04:45:50;;;;;;;22.85;14.25;;;;;;;5.41;96.27;101457.69;5012056;28;20038;-69
2021/11/19 04:48:16;;;;;;;20.35;13.38;;;;;;;5.44;96.00;101449.56;5015446;28;20113;-69
2021/11/19 04:50:44;;;;;;;24.50;14.77;;;;;;;5.39;95.84;101448.94;5016796;28;20407;-69
2021/11/19 04:53:12;;;;;;;23.15;13.73;;;;;;;5.47;95.86;101456.50;4995603;28;20033;-67
2021/11/19 04:55:38;;;;;;;21.08;13.88;;;;;;;5.38;95.75;101443.69;5015673;28;20021;-67
2021/11/19 04:58:05;;;;;;;24.58;15.02;;;;;;;5.46;95.95;101447.69;4999248;28;20036;-67
2021/11/19 05:00:45;;;;;;;23.55;14.73;;;;;;;5.44;95.61;101440.69;5016823;28;20096;-67
2021/11/19 05:03:11;;;;;;;24.77;14.48;;;;;;;5.46;95.98;101441.50;5014755;28;20069;-67
2021/11/19 05:05:38;;;;;;;20.30;13.25;;;;;;;5.46;95.90;101446.81;5014858;28;20040;-67
2021/11/19 05:08:04;;;;;;;24.38;14.25;;;;;;;5.49;95.81;101447.53;5016691;28;20060;-67
2021/11/19 05:10:31;;;;;;;26.80;14.63;;;;;;;5.52;96.05;101451.84;5017273;28;20520;-67
2021/11/19 05:12:58;;;;;;;24.35;14.63;;;;;;;5.49;96.22;101439.56;5010805;28;20033;-67
2021/11/19 05:15:26;;;;;;;22.08;14.13;;;;;;;5.49;96.05;101423.59;5010783;28;20029;-67
2021/11/19 05:17:51;;;;;;;25.73;14.30;;;;;;;5.49;96.39;101425.38;5010694;28;20030;-67
2021/11/19 05:20:20;;;;;;;27.05;14.75;;;;;;;5.52;96.39;101433.22;5010994;28;20045;-69
2021/11/19 05:22:46;;;;;;;24.00;14.55;;;;;;;5.54;95.85;101428.66;5010551;28;20041;-69
2021/11/19 05:25:14;;;;;;;25.27;14.27;;;;;;;5.55;96.07;101436.56;5010265;28;20042;-69
2021/11/19 05:27:40;;;;;;;24.27;15.32;;;;;;;5.44;96.06;101414.09;5010480;28;20029;-69
2021/11/19 05:30:07;;;;;;;24.23;15.18;;;;;;;5.51;96.09;101421.69;5010324;28;20030;-69
2021/11/19 05:32:32;;;;;;;29.38;14.80;;;;;;;5.54;96.26;101426.88;5010257;28;20042;-69
2021/11/19 05:34:58;;;;;;;27.73;15.57;;;;;;;5.55;96.11;101422.44;5010603;28;20042;-69
2021/11/19 05:37:24;;;;;;;26.05;15.23;;;;;;;5.49;96.09;101426.25;5010392;28;20026;-69
2021/11/19 05:39:49;;;;;;;27.25;16.15;;;;;;;5.54;95.80;101426.88;5010148;28;20137;-69
2021/11/19 05:42:15;;;;;;;23.55;14.85;;;;;;;5.57;96.08;101429.38;5010079;28;20021;-70
2021/11/19 05:44:42;;;;;;;25.40;15.55;;;;;;;5.54;95.98;101429.53;5010589;28;20038;-69
2021/11/19 05:47:11;;;;;;;29.23;16.15;;;;;;;5.56;96.40;101433.00;5010118;28;20104;-69
2021/11/19 05:49:37;;;;;;;30.17;15.43;;;;;;;5.57;96.62;101423.19;5010387;28;20121;-69
2021/11/19 05:52:05;;;;;;;29.50;16.50;;;;;;;5.56;96.74;101424.13;5010185;28;20040;-69
2021/11/19 05:54:34;;;;;;;25.60;15.10;;;;;;;5.49;97.19;101409.41;5010210;28;20486;-68
2021/11/19 05:57:01;;;;;;;28.17;15.77;;;;;;;5.55;97.32;101417.94;5009980;28;20024;-69
2021/11/19 05:59:26;;;;;;;25.08;14.30;;;;;;;5.59;97.48;101418.66;5010210;28;20053;-69
2021/11/19 06:01:52;;;;;;;24.85;14.82;;;;;;;5.62;97.43;101424.72;5010145;28;20600;-69
2021/11/19 06:04:18;;;;;;;24.35;14.15;;;;;;;5.65;97.14;101421.03;5009960;28;20076;-69
2021/11/19 06:06:43;;;;;;;21.38;13.48;;;;;;;5.65;97.37;101423.69;4992236;28;20069;-69
2021/11/19 06:09:16;;;;;;;25.38;13.35;;;;;;;5.65;97.64;101413.03;5009756;28;20092;-69
2021/11/19 06:11:50;;;;;;;19.85;12.27;;;;;;;5.77;97.29;101421.25;5008574;28;20235;-69
2021/11/19 06:14:30;;;;;;;19.95;12.35;;;;;;;5.76;97.35;101413.34;5009754;28;20104;-69
2021/11/19 06:17:00;;;;;;;17.42;11.82;;;;;;;5.82;97.60;101415.75;5010019;28;20030;-69
2021/11/19 06:19:30;;;;;;;18.90;12.52;;;;;;;5.85;97.98;101421.78;5009808;28;20026;-69
2021/11/19 06:22:05;;;;;;;20.95;12.00;;;;;;;5.92;97.81;101417.88;5009538;28;20036;-69
2021/11/19 06:24:43;;;;;;;18.50;12.27;;;;;;;5.97;97.61;101404.31;5010244;28;20026;-69
2021/11/19 06:27:12;;;;;;;18.85;12.40;;;;;;;6.05;97.01;101405.63;5011680;28;20409;-69
2021/11/19 06:29:38;;;;;;;18.98;12.45;;;;;;;6.10;97.38;101408.06;5013902;28;20033;-69
2021/11/19 06:32:04;;;;;;;17.85;11.20;;;;;;;6.09;96.60;101401.88;5009525;28;20414;-69
2021/11/19 06:34:30;;;;;;;16.40;10.77;;;;;;;6.12;97.12;101399.03;5009523;28;20089;-69
2021/11/19 06:36:56;;;;;;;16.98;11.77;;;;;;;6.20;96.95;101401.31;5009488;28;20033;-70
2021/11/19 06:39:24;;;;;;;16.17;11.20;;;;;;;6.23;96.55;101395.81;5008078;28;20279;-69
2021/11/19 06:41:49;;;;;;;17.38;11.35;;;;;;;6.22;96.59;101389.63;5009073;28;20117;-69
2021/11/19 06:44:15;;;;;;;15.68;10.50;;;;;;;6.30;96.32;101403.41;4991008;28;20109;-69
2021/11/19 06:46:42;;;;;;;19.05;10.45;;;;;;;6.32;96.77;101400.66;5009448;28;20447;-69
2021/11/19 06:49:08;;;;;;;16.00;10.48;;;;;;;6.40;96.34;101409.97;5007700;28;20026;-69
2021/11/19 06:51:35;;;;;;;17.15;9.73;;;;;;;6.57;94.44;101420.59;5008846;28;20399;-69
2021/11/19 06:54:01;;;;;;;17.17;11.05;;;;;;;6.57;94.37;101398.38;5009721;28;20033;-69
2021/11/19 06:56:26;;;;;;;19.75;10.77;;;;;;;6.70;93.49;101402.09;4991595;28;20033;-69
2021/11/19 06:58:52;;;;;;;16.27;9.93;;;;;;;6.75;92.67;101400.06;5009389;28;20056;-70
2021/11/19 07:01:18;;;;;;;23.58;11.18;;;;;;;6.83;92.95;101404.03;5009271;28;20049;-69
2021/11/19 07:03:47;;;;;;;17.65;11.00;;;;;;;6.94;91.90;101393.63;5009234;28;20092;-69
2021/11/19 07:06:14;;;;;;;16.65;10.45;;;;;;;7.04;91.59;101386.81;5009122;28;20390;-69
2021/11/19 07:08:39;;;;;;;15.95;10.55;;;;;;;6.96;91.47;101383.72;5009137;28;20387;-69
2021/11/19 07:11:09;;;;;;;21.63;12.48;;;;;;;6.99;92.44;101393.34;5008350;28;20032;-69
2021/11/19 07:13:35;;;;;;;20.83;12.07;;;;;;;6.93;92.47;101385.69;5008378;28;20038;-69
2021/11/19 07:16:00;;;;;;;16.63;10.13;;;;;;;7.14;91.73;101392.50;5001443;28;20433;-69
2021/11/19 07:18:26;;;;;;;18.02;11.25;;;;;;;7.15;91.21;101388.03;5007601;28;20025;-69
2021/11/19 07:20:52;;;;;;;15.43;11.07;;;;;;;7.10;91.87;101379.44;5009103;28;20037;-69
2021/11/19 07:23:20;;;;;;;17.83;11.30;;;;;;;7.28;91.22;101387.22;5008773;28;20033;-69
2021/11/19 07:25:46;;;;;;;18.20;11.35;;;;;;;7.27;91.15;101382.00;5008513;28;20104;-69
2021/11/19 07:28:12;;;;;;;15.77;10.38;;;;;;;7.43;89.82;101389.03;5008839;28;20037;-69
2021/11/19 07:30:46;;;;;;;16.13;10.40;;;;;;;7.44;90.22;101374.72;4991321;28;20032;-68
2021/11/19 07:33:12;;;;;;;;;;;;;;;7.40;90.21;101377.66;4991762;28;20040;-68
2021/11/19 07:35:41;;;;;;;16.60;11.13;;;;;;;7.45;90.88;101384.44;5009265;28;19913;-68
2021/11/19 07:38:07;;;;;;;18.58;11.48;;;;;;;7.62;89.88;101386.16;5009038;28;20053;-69
2021/11/19 07:40:35;;;;;;;17.50;10.75;;;;;;;7.59;90.22;101384.53;5007587;28;20486;-68
2021/11/19 07:43:01;;;;;;;18.23;11.07;;;;;;;7.61;90.37;101387.09;5009054;28;20064;-68
2021/11/19 07:45:33;;;;;;;20.02;11.73;;;;;;;7.76;89.37;101396.88;5008136;28;20280;-68
2021/11/19 07:47:58;;;;;;;20.40;11.15;;;;;;;7.82;89.71;101384.03;5009078;28;20029;-68
2021/11/19 07:50:26;;;;;;;20.38;12.18;;;;;;;7.97;88.41;101391.09;5008891;28;20103;-69
2021/11/19 07:52:51;;;;;;;17.23;10.75;;;;;;;7.96;88.26;101362.69;5007560;28;20038;-69
2021/11/19 07:55:17;;;;;;;16.00;10.90;;;;;;;8.08;87.89;101372.63;5008825;28;20379;-68
2021/11/19 07:57:43;;;;;;;20.40;12.07;;;;;;;8.21;87.28;101367.38;5012474;28;20092;-69
2021/11/19 08:00:14;;;;;;;19.05;11.27;;;;;;;8.27;87.10;101372.38;5011947;28;20029;-69
2021/11/19 08:02:40;;;;;;;19.05;12.52;;;;;;;8.35;86.51;101368.28;5012456;28;20057;-69
2021/11/19 08:05:06;;;;;;;19.55;11.35;;;;;;;8.42;86.71;101360.75;5012138;28;20115;-69
2021/11/19 08:07:33;;;;;;;26.05;13.20;;;;;;;8.51;85.58;101376.19;5012256;28;20048;-69
2021/11/19 08:09:58;;;;;;;17.08;10.52;;;;;;;8.59;84.22;101360.56;5012419;28;20053;-69
2021/11/19 08:12:24;;;;;;;17.65;11.18;;;;;;;8.58;83.87;101361.53;4994474;28;20634;-69
2021/11/19 08:14:50;;;;;;;15.13;9.98;;;;;;;8.70;84.17;101374.09;5012369;28;20052;-69
2021/11/19 08:17:24;;;;;;;15.40;10.45;;;;;;;8.77;84.22;101383.47;5012195;28;20450;-69
2021/11/19 08:19:50;;;;;;;19.23;11.45;;;;;;;8.86;84.44;101388.22;5011006;28;20021;-69
2021/11/19 08:22:17;;;;;;;23.17;9.88;;;;;;;8.94;84.21;101386.75;5011979;28;20065;-69
2021/11/19 08:24:45;;;;;;;18.45;10.95;;;;;;;9.06;83.28;101385.09;5012261;28;20733;-69
2021/11/19 08:27:14;;;;;;;19.88;10.70;;;;;;;9.16;82.88;101391.63;5011880;28;20037;-70
2021/11/19 08:29:42;;;;;;;18.73;11.50;;;;;;;9.29;82.01;101377.31;4994209;28;20029;-70
2021/11/19 08:32:09;;;;;;;21.35;11.43;;;;;;;9.48;80.42;101393.00;5011988;28;20469;-69
2021/11/19 08:34:34;;;;;;;18.23;11.18;;;;;;;9.66;78.53;101361.47;5011604;28;20049;-69
2021/11/19 08:37:01;;;;;;;21.13;12.15;;;;;;;9.75;78.21;101364.41;5011690;28;20060;-70
2021/11/19 08:39:28;;;;;;;20.80;12.13;;;;;;;9.88;78.44;101375.13;4993914;28;20050;-69
2021/11/19 08:41:54;;;;;;;22.02;12.40;;;;;;;9.84;78.46;101371.81;5011642;28;20025;-69
2021/11/19 08:44:21;;;;;;;17.83;11.27;;;;;;;9.87;77.66;101376.94;5011445;28;20471;-69
2021/11/19 08:46:49;;;;;;;16.27;11.43;;;;;;;9.82;77.80;101381.78;5011719;28;20025;-69
2021/11/19 08:49:27;;;;;;;19.90;12.32;;;;;;;9.79;78.70;101387.34;5011129;28;20474;-69
2021/11/19 08:51:54;;;;;;;18.48;11.60;;;;;;;9.83;78.43;101383.47;5011748;28;20129;-70
2021/11/19 08:54:20;;;;;;;18.92;11.88;;;;;;;9.75;79.15;101384.97;5007934;28;20037;-69
2021/11/19 08:56:49;;;;;;;19.00;12.02;;;;;;;9.66;79.39;101370.38;5011546;28;20029;-70
2021/11/19 08:59:15;;;;;;;17.98;11.60;;;;;;;9.87;78.97;101381.47;5010096;28;20037;-69
2021/11/19 09:01:51;;;;;;;16.95;11.70;;;;;;;9.91;78.53;101354.34;5011584;28;20029;-69
2021/11/19 09:04:18;;;;;;;17.70;10.98;;;;;;;9.95;77.82;101339.78;4993745;28;20037;-68
2021/11/19 09:06:44;;;;;;;20.23;12.00;;;;;;;10.09;76.93;101347.75;5011597;28;20044;-69
2021/11/19 09:09:10;;;;;;;21.13;11.38;;;;;;;10.06;77.39;101355.13;5010833;28;20033;-69
2021/11/19 09:11:36;;;;;;;22.63;12.38;;;;;;;10.02;77.82;101358.97;5008133;28;20025;-69
2021/11/19 09:14:02;;;;;;;19.00;12.18;;;;;;;10.05;77.39;101356.06;5007393;28;20438;-70
2021/11/19 09:16:34;;;;;;;19.85;12.13;;;;;;;10.04;77.55;101357.91;5010973;28;20025;-69
2021/11/19 09:19:16;;;;;;;20.40;11.35;;;;;;;9.98;78.65;101360.13;5011490;28;20723;-70
2021/11/19 09:22:10;;;;;;;23.52;12.77;;;;;;;10.14;77.70;101360.81;5004680;28;20030;-69
2021/11/19 09:24:37;;;;;;;20.63;12.40;;;;;;;9.99;78.55;101361.88;5003103;28;20030;-70
2021/11/19 09:27:09;;;;;;;25.02;12.40;;;;;;;9.91;79.51;101354.34;5008918;28;20041;-69
2021/11/19 09:29:37;;;;;;;19.00;11.85;;;;;;;10.01;78.76;101349.22;5010100;28;20034;-70
2021/11/19 09:32:05;;;;;;;22.10;13.98;;;;;;;9.91;79.42;101348.13;5009839;28;20037;-70
2021/11/19 09:34:36;;;;;;;19.23;12.30;;;;;;;10.07;78.61;101356.88;5009731;28;20054;-70
2021/11/19 09:37:02;;;;;;;22.65;12.90;;;;;;;10.16;78.11;101348.19;5010030;28;20390;-70
2021/11/19 09:39:27;;;;;;;20.52;12.52;;;;;;;10.18;77.75;101348.91;5008521;28;20109;-70
2021/11/19 09:42:10;;;;;;;19.33;12.45;;;;;;;10.11;78.20;101339.59;5010091;28;20542;-69
2021/11/19 09:44:36;;;;;;;20.05;12.25;;;;;;;10.13;78.30;101338.50;5010064;28;20030;-70
2021/11/19 09:47:21;;;;;;;24.02;13.48;;;;;;;10.06;78.76;101331.00;4992319;28;20064;-70
2021/11/19 09:50:05;;;;;;;20.83;13.57;;;;;;;10.02;79.42;101335.69;5010282;28;20048;-70
2021/11/19 09:53:12;;;;;;;23.83;14.15;;;;;;;9.96;79.63;101328.09;5010617;28;20036;-71
2021/11/19 09:56:02;;;;;;;23.20;13.77;;;;;;;10.01;79.10;101309.88;4982478;28;20465;-70
2021/11/19 09:58:53;;;;;;;24.52;14.27;;;;;;;10.10;79.12;101313.75;5010569;28;20034;-70
2021/11/19 10:02:00;;;;;;;26.80;15.05;;;;;;;10.04;80.53;101306.97;5007536;28;20668;-70
2021/11/19 10:04:47;;;;;;;24.50;14.07;;;;;;;10.13;80.64;101300.97;5001374;28;20064;-70
2021/11/19 10:07:31;;;;;;;21.90;13.70;;;;;;;10.14;80.06;101310.75;5009882;28;20026;-70
2021/11/19 10:10:19;;;;;;;19.92;12.82;;;;;;;10.19;79.54;101302.41;5010301;28;20092;-70
2021/11/19 10:12:53;;;;;;;22.30;14.02;;;;;;;10.27;78.50;101302.69;4981669;28;20041;-71
2021/11/19 10:15:37;;;;;;;22.13;13.75;;;;;;;10.22;79.02;101299.50;5009942;28;20101;-70
2021/11/19 10:18:12;;;;;;;21.80;13.25;;;;;;;10.12;79.12;101280.50;5008508;28;20061;-70
2021/11/19 10:20:48;;;;;;;22.58;13.02;;;;;;;10.23;78.39;101272.59;5009450;28;20029;-71
2021/11/19 10:23:19;;;;;;;22.95;12.85;;;;;;;10.33;77.91;101265.59;5009758;28;20459;-70
2021/11/19 10:25:59;;;;;;;19.38;12.02;;;;;;;10.36;77.71;101257.34;5010031;28;20026;-69
2021/11/19 10:28:39;;;;;;;22.35;12.48;;;;;;;10.42;77.28;101256.03;4992171;28;20030;-70
2021/11/19 10:31:08;;;;;;;21.10;12.25;;;;;;;10.47;76.88;101252.03;5008624;28;20033;-71
2021/11/19 10:33:38;;;;;;;21.20;13.30;;;;;;;10.43;77.36;101258.59;4991793;28;20037;-70
2021/11/19 10:36:44;;;;;;;21.75;13.35;;;;;;;10.43;77.59;101238.97;5009578;28;20555;-70
2021/11/19 10:39:25;;;;;;;23.10;12.85;;;;;;;10.39;77.89;101232.13;5008925;28;20036;-70
2021/11/19 10:42:06;;;;;;;21.67;13.18;;;;;;;10.50;77.21;101242.91;5007742;28;20522;-70
2021/11/19 10:44:37;;;;;;;22.08;12.52;;;;;;;10.57;77.10;101247.72;5009775;28;20061;-70
2021/11/19 10:47:17;;;;;;;23.08;13.20;;;;;;;10.60;76.60;101239.44;5009744;28;20034;-69
2021/11/19 10:49:55;;;;;;;20.90;12.82;;;;;;;10.59;76.77;101235.06;5009832;28;20074;-70
2021/11/19 10:53:02;;;;;;;22.33;13.02;;;;;;;10.65;76.69;101239.13;5009597;28;20426;-70
2021/11/19 10:55:58;;;;;;;21.67;12.85;;;;;;;10.81;75.98;101243.22;4982990;28;20052;-70
2021/11/19 10:58:56;;;;;;;22.40;13.82;;;;;;;10.85;75.55;101235.81;5009589;28;20040;-70
2021/11/19 11:02:13;;;;;;;22.30;13.35;;;;;;;10.79;76.24;101231.75;4983199;28;20073;-70
2021/11/19 11:04:53;;;;;;;18.17;12.32;;;;;;;10.81;76.83;101229.81;4952329;28;20045;-71
2021/11/19 11:07:31;;;;;;;21.20;13.93;;;;;;;10.83;76.71;101225.19;4991853;28;20048;-70
2021/11/19 11:10:06;;;;;;;24.23;13.38;;;;;;;10.88;76.42;101227.53;5009648;28;20026;-70
2021/11/19 11:12:43;;;;;;;21.45;12.88;;;;;;;10.84;77.63;101226.06;5009021;28;20025;-70
2021/11/19 11:15:23;;;;;;;26.83;14.82;;;;;;;10.90;77.25;101228.28;5009939;28;20394;-71
2021/11/19 11:18:09;;;;;;;23.00;14.52;;;;;;;10.92;76.66;101221.81;5009011;28;20505;-71
2021/11/19 11:20:38;;;;;;;23.55;13.70;;;;;;;11.07;76.81;101215.28;5007088;28;20406;-72
2021/11/19 11:23:31;;;;;;;22.20;14.05;;;;;;;10.97;77.68;101208.06;5008694;28;20746;-71
2021/11/19 11:26:07;;;;;;;20.40;13.30;;;;;;;11.06;77.63;101199.31;5007493;28;20057;-71
2021/11/19 11:28:39;;;;;;;22.80;14.13;;;;;;;11.07;77.81;101196.50;5008503;28;20462;-71
2021/11/19 11:31:32;;;;;;;25.58;15.10;;;;;;;11.03;78.16;101203.06;5009575;28;20030;-71
2021/11/19 11:34:24;;;;;;;24.08;14.93;;;;;;;11.11;77.84;101192.63;5012511;28;20474;-71